Terminal Aerodrome Forecast
Issued by NWS

Home | Current Version | Previous Version | Text Only | Print | Product List | Glossary On
Versions: 1 2 3 4 5 6 7 8 9 10 11 12 13
000
FTUS42 KMLB 061141
TAFSFB
TAF
KSFB 061141Z 0612/0712 18010KT P6SM SCT010 BKN060 WS020/21035KT
      TEMPO 0612/0614 OVC010
     FM061500 21017G25KT P6SM VCSH SCT020 BKN040
      TEMPO 0615/0617 3SM TSRA BKN030CB
     FM062200 25011KT P6SM BKN050
     FM070300 26006KT P6SM SCT025=

USA.gov is the U.S. government's official web portal to all federal, state and local government web resources and services.